Time;durP1;ratioP1;P1;durP2;ratioP2;P2;SDS_P1;SDS_P2;PMS_P1;PMS_P2;Temp;Humidity;BMP_temperature;BMP_pressure;BME280_temperature;BME280_humidity;BME280_pressure;Samples;Min_cycle;Max_cycle;Signal;HPM_P1;HPM_P2
2023/10/19 00:00:39;;;;;;;1.48;1.00;;;27.60;99.90;;;;;;5064307;23;20060;-53
2023/10/19 00:03:08;;;;;;;2.42;0.90;;;27.60;99.90;;;;;;5052399;28;20033;-54
2023/10/19 00:05:33;;;;;;;4.80;1.45;;;27.60;99.90;;;;;;5052253;28;20021;-54
2023/10/19 00:08:05;;;;;;;3.72;1.33;;;27.60;99.90;;;;;;5052182;28;20043;-53
2023/10/19 00:10:35;;;;;;;3.38;1.58;;;27.50;99.90;;;;;;5052350;28;20028;-54
2023/10/19 00:13:05;;;;;;;4.13;1.45;;;27.50;99.90;;;;;;5052293;28;20067;-54
2023/10/19 00:15:34;;;;;;;2.58;1.35;;;27.50;99.90;;;;;;5052223;28;20021;-54
2023/10/19 00:18:13;;;;;;;3.08;1.92;;;27.50;99.90;;;;;;5052053;28;20443;-54
2023/10/19 00:23:09;;;;;;;2.80;1.52;;;27.50;99.90;;;;;;5052385;28;20029;-53
2023/10/19 00:25:35;;;;;;;2.67;2.00;;;27.50;99.90;;;;;;5034765;28;20032;-53
2023/10/19 00:28:04;;;;;;;4.35;1.70;;;27.50;99.90;;;;;;5051926;28;20025;-53
2023/10/19 00:30:32;;;;;;;3.50;1.75;;;27.50;99.90;;;;;;5052000;28;20017;-53
2023/10/19 00:33:03;;;;;;;3.15;1.30;;;27.40;99.90;;;;;;5052375;28;20343;-53
2023/10/19 00:35:35;;;;;;;3.90;1.63;;;27.50;99.90;;;;;;5052036;28;20052;-53
2023/10/19 00:40:53;;;;;;;2.28;1.48;;;27.40;99.90;;;;;;5052227;28;20071;-54
2023/10/19 00:43:32;;;;;;;3.15;1.40;;;27.40;99.90;;;;;;5052232;28;20107;-54
2023/10/19 00:46:01;;;;;;;4.45;1.85;;;27.40;99.90;;;;;;5051976;28;20060;-54
2023/10/19 00:48:27;;;;;;;5.10;1.95;;;27.40;99.90;;;;;;5051914;28;20029;-54
2023/10/19 00:51:06;;;;;;;3.80;1.75;;;27.40;99.90;;;;;;5051778;28;20452;-54
2023/10/19 00:53:34;;;;;;;4.75;1.80;;;27.40;99.90;;;;;;5051852;28;20049;-54
2023/10/19 00:56:05;;;;;;;2.85;1.77;;;27.40;99.90;;;;;;5051922;28;20438;-53
2023/10/19 00:58:31;;;;;;;2.80;1.60;;;27.40;99.90;;;;;;5051865;28;20497;-54
2023/10/19 01:00:59;;;;;;;2.13;1.50;;;27.40;99.90;;;;;;5052319;28;20049;-54
2023/10/19 01:03:31;;;;;;;2.13;1.13;;;27.40;99.90;;;;;;5051714;28;20539;-53
2023/10/19 01:05:58;;;;;;;4.40;1.75;;;27.40;99.90;;;;;;5018164;28;20035;-54
2023/10/19 01:08:26;;;;;;;2.30;1.65;;;27.40;99.90;;;;;;5051732;28;20035;-53
2023/10/19 01:10:53;;;;;;;2.38;1.27;;;27.40;99.90;;;;;;5052019;28;20024;-54
2023/10/19 01:13:26;;;;;;;3.33;1.63;;;27.40;99.90;;;;;;5052020;28;20496;-53
2023/10/19 01:15:54;;;;;;;2.55;1.50;;;27.40;99.90;;;;;;5035288;28;20059;-53
2023/10/19 01:18:19;;;;;;;2.30;1.88;;;27.40;99.90;;;;;;5051861;28;20104;-54
2023/10/19 01:20:52;;;;;;;2.38;1.48;;;27.40;99.90;;;;;;5051667;28;20056;-54
2023/10/19 01:23:23;;;;;;;2.58;1.67;;;27.40;99.90;;;;;;5051606;28;20029;-53
2023/10/19 01:28:42;;;;;;;2.85;1.55;;;27.40;99.90;;;;;;5051814;28;20083;-54
2023/10/19 01:31:16;;;;;;;3.53;1.30;;;27.40;99.90;;;;;;5033570;28;20017;-53
2023/10/19 01:33:44;;;;;;;3.28;1.73;;;27.40;99.90;;;;;;5054826;28;20025;-53
2023/10/19 01:36:11;;;;;;;;;;;27.40;99.90;;;;;;5055650;28;20049;-53
2023/10/19 01:38:37;;;;;;;;;;;27.40;99.90;;;;;;5055590;28;19950;-53
2023/10/19 01:41:23;;;;;;;1.50;1.10;;;27.40;99.90;;;;;;5055187;28;19904;-54
2023/10/19 01:43:54;;;;;;;1.98;1.10;;;27.40;99.90;;;;;;5054989;28;20024;-54
2023/10/19 01:46:21;;;;;;;1.58;1.00;;;27.40;99.90;;;;;;5054955;28;20024;-54
2023/10/19 01:48:49;;;;;;;;;;;27.40;99.90;;;;;;5055284;28;20033;-54
2023/10/19 01:51:15;;;;;;;3.17;0.93;;;27.30;99.90;;;;;;5054896;28;20353;-53
2023/10/19 01:53:44;;;;;;;1.77;1.33;;;27.30;99.90;;;;;;5054710;28;20163;-54
2023/10/19 01:56:16;;;;;;;2.30;1.08;;;27.30;99.90;;;;;;5054781;28;20082;-54
2023/10/19 01:58:44;;;;;;;3.03;1.30;;;27.30;99.90;;;;;;5054659;28;20028;-54
2023/10/19 02:03:42;;;;;;;2.38;1.35;;;27.30;99.90;;;;;;5053597;28;20013;-49
2023/10/19 02:06:17;;;;;;;2.75;1.20;;;27.30;99.90;;;;;;5053376;28;20021;-51
2023/10/19 02:08:55;;;;;;;5.63;1.38;;;27.30;99.90;;;;;;5053290;28;20037;-51
2023/10/19 02:11:22;;;;;;;2.53;1.05;;;27.20;99.90;;;;;;5053387;28;20031;-49
2023/10/19 02:13:50;;;;;;;4.32;1.20;;;27.30;99.90;;;;;;5053375;28;20047;-49
2023/10/19 02:16:16;;;;;;;3.72;1.13;;;27.30;99.90;;;;;;5053348;28;20478;-49
2023/10/19 02:18:44;;;;;;;2.55;1.02;;;27.20;99.90;;;;;;5053188;28;20479;-49
2023/10/19 02:21:11;;;;;;;3.05;1.70;;;27.20;99.90;;;;;;5053127;28;20022;-49
2023/10/19 02:23:39;;;;;;;3.78;0.93;;;27.20;99.90;;;;;;5053143;28;20501;-49
2023/10/19 02:26:05;;;;;;;;;;;27.20;99.90;;;;;;5053559;28;20017;-50
2023/10/19 02:28:31;;;;;;;2.20;0.88;;;27.20;99.90;;;;;;5053076;28;19958;-49
2023/10/19 02:31:18;;;;;;;2.60;1.48;;;27.20;99.90;;;;;;5053376;28;20021;-49
2023/10/19 02:33:52;;;;;;;2.15;1.13;;;27.20;99.90;;;;;;5053093;28;20052;-49
2023/10/19 02:36:19;;;;;;;2.30;1.00;;;27.20;99.90;;;;;;5053034;28;20084;-49
2023/10/19 02:38:51;;;;;;;2.85;1.25;;;27.20;99.90;;;;;;5053010;28;20033;-49
2023/10/19 02:41:20;;;;;;;3.58;1.13;;;27.10;99.90;;;;;;5052849;28;20029;-49
2023/10/19 02:43:51;;;;;;;3.45;1.00;;;27.10;99.90;;;;;;5051796;28;20047;-49
2023/10/19 02:46:17;;;;;;;3.47;1.25;;;27.10;99.90;;;;;;5052771;28;20021;-50
2023/10/19 02:48:47;;;;;;;2.87;0.97;;;27.10;99.90;;;;;;5052862;28;20517;-49
2023/10/19 02:51:13;;;;;;;4.32;1.20;;;27.10;99.90;;;;;;5052673;28;20473;-49
2023/10/19 02:53:42;;;;;;;2.85;1.02;;;27.10;99.90;;;;;;5052676;28;20033;-49
2023/10/19 02:56:19;;;;;;;2.15;1.38;;;27.00;99.90;;;;;;5052472;28;20583;-50
2023/10/19 02:58:49;;;;;;;2.55;0.85;;;27.10;99.90;;;;;;5052824;28;20389;-49
2023/10/19 03:01:21;;;;;;;2.53;1.00;;;27.00;99.90;;;;;;5009436;23;1601975;-53
2023/10/19 03:03:50;;;;;;;1.90;0.90;;;27.00;99.90;;;;;;5053520;28;20281;-54
2023/10/19 03:06:20;;;;;;;1.23;0.65;;;27.00;99.90;;;;;;5053376;28;20082;-53
2023/10/19 03:08:47;;;;;;;1.33;0.85;;;27.00;99.90;;;;;;5053360;28;20041;-53
2023/10/19 03:11:14;;;;;;;2.22;0.95;;;27.00;99.90;;;;;;5053318;28;20049;-54
2023/10/19 03:13:41;;;;;;;3.60;1.15;;;27.00;99.90;;;;;;5053436;28;20033;-54
2023/10/19 03:16:07;;;;;;;2.15;0.90;;;27.00;99.90;;;;;;5053305;28;20017;-54
2023/10/19 03:18:35;;;;;;;2.10;0.82;;;27.00;99.90;;;;;;5053265;28;20048;-53
2023/10/19 03:21:01;;;;;;;;;;;27.00;99.90;;;;;;5053605;28;20017;-53
2023/10/19 03:23:28;;;;;;;1.30;0.80;;;27.00;99.90;;;;;;5053457;28;19912;-53
2023/10/19 03:28:42;;;;;;;;;;;27.00;99.90;;;;;;5053417;28;20499;-53
2023/10/19 03:31:08;;;;;;;3.63;1.17;;;27.00;99.90;;;;;;5053097;28;19954;-53
2023/10/19 03:33:36;;;;;;;3.88;1.25;;;27.00;99.90;;;;;;5053090;28;20064;-53
2023/10/19 03:36:04;;;;;;;3.40;1.13;;;26.90;99.90;;;;;;5052873;28;20465;-53
2023/10/19 03:38:36;;;;;;;2.83;1.00;;;26.90;99.90;;;;;;5053093;28;20021;-53
2023/10/19 03:41:06;;;;;;;2.42;1.13;;;26.90;99.90;;;;;;5052713;28;20078;-53
2023/10/19 03:43:33;;;;;;;3.60;1.20;;;26.90;99.90;;;;;;5052917;28;20017;-53
2023/10/19 03:46:04;;;;;;;4.22;1.15;;;26.90;99.90;;;;;;5052931;28;20048;-53
2023/10/19 03:48:36;;;;;;;3.45;1.23;;;26.90;99.90;;;;;;5052723;28;20499;-53
2023/10/19 03:51:02;;;;;;;1.52;1.00;;;26.90;99.90;;;;;;5052693;28;20428;-53
2023/10/19 03:53:29;;;;;;;1.57;0.67;;;26.90;99.90;;;;;;5052784;28;20104;-53
2023/10/19 03:55:55;;;;;;;4.22;1.20;;;26.90;99.90;;;;;;5052436;28;20021;-54
2023/10/19 03:58:21;;;;;;;2.33;0.90;;;26.90;99.90;;;;;;5052518;28;20028;-54
2023/10/19 04:00:50;;;;;;;2.03;1.25;;;26.90;99.90;;;;;;5052725;28;20040;-54
2023/10/19 04:03:17;;;;;;;2.33;0.93;;;26.90;99.90;;;;;;5052445;28;20167;-55
2023/10/19 04:05:46;;;;;;;4.07;1.10;;;26.90;99.90;;;;;;5052413;28;20473;-55
2023/10/19 04:08:15;;;;;;;5.55;1.00;;;26.80;99.90;;;;;;5052369;28;20032;-52
2023/10/19 04:13:25;;;;;;;2.17;1.13;;;26.90;99.90;;;;;;5052307;28;20036;-52
2023/10/19 04:15:53;;;;;;;3.60;0.90;;;26.90;99.90;;;;;;5052054;28;20021;-55
2023/10/19 04:18:19;;;;;;;4.07;1.23;;;26.80;99.90;;;;;;5034880;28;20024;-52
2023/10/19 04:23:16;;;;;;;3.50;1.15;;;26.80;99.90;;;;;;5052156;28;20118;-52
2023/10/19 04:25:42;;;;;;;1.80;1.23;;;26.80;99.90;;;;;;5052249;28;20099;-52
2023/10/19 04:28:09;;;;;;;2.60;1.05;;;26.80;99.90;;;;;;5052020;28;20136;-52
2023/10/19 04:30:36;;;;;;;2.95;1.17;;;26.80;99.90;;;;;;5052235;28;20086;-52
2023/10/19 04:33:02;;;;;;;6.00;1.48;;;26.80;99.90;;;;;;5034980;28;20397;-52
2023/10/19 04:35:30;;;;;;;2.03;0.93;;;26.80;99.90;;;;;;5051972;28;20031;-51
2023/10/19 04:37:56;;;;;;;2.00;1.02;;;26.80;99.90;;;;;;5052062;28;20017;-52
2023/10/19 04:40:23;;;;;;;3.53;1.23;;;26.80;99.90;;;;;;5051870;28;20035;-51
2023/10/19 04:42:53;;;;;;;3.10;1.00;;;26.80;99.90;;;;;;5052036;28;20017;-51
2023/10/19 04:45:19;;;;;;;4.75;1.42;;;26.70;99.90;;;;;;5052099;28;20032;-52
2023/10/19 04:47:46;;;;;;;2.05;1.13;;;26.70;99.90;;;;;;5051773;28;20025;-51
2023/10/19 04:50:12;;;;;;;3.30;1.20;;;26.70;99.90;;;;;;5051952;28;20036;-52
2023/10/19 04:52:39;;;;;;;2.25;1.25;;;26.70;99.90;;;;;;5051835;28;20033;-52
2023/10/19 04:55:05;;;;;;;3.33;1.75;;;26.70;99.90;;;;;;5052025;28;20029;-52
2023/10/19 04:57:32;;;;;;;5.90;1.88;;;26.70;99.90;;;;;;5052189;28;20370;-52
2023/10/19 04:59:58;;;;;;;3.00;1.42;;;26.70;99.90;;;;;;5051932;28;20036;-52
2023/10/19 05:02:23;;;;;;;3.22;1.42;;;26.60;99.90;;;;;;5051488;28;20045;-52
2023/10/19 05:04:49;;;;;;;2.75;1.95;;;26.60;99.90;;;;;;5051689;28;20036;-52
2023/10/19 05:07:18;;;;;;;2.38;1.50;;;26.60;99.90;;;;;;5052656;28;20029;-52
2023/10/19 05:09:45;;;;;;;4.57;1.98;;;26.60;99.90;;;;;;5055648;28;20096;-52
2023/10/19 05:12:11;;;;;;;4.67;1.77;;;26.60;99.90;;;;;;5055684;28;20048;-52
2023/10/19 05:14:39;;;;;;;4.53;1.73;;;26.60;99.90;;;;;;5055671;28;20357;-52
2023/10/19 05:17:12;;;;;;;5.07;2.05;;;26.60;99.90;;;;;;5055727;28;20170;-53
2023/10/19 05:19:39;;;;;;;6.65;2.13;;;26.60;99.90;;;;;;5055421;28;20078;-53
2023/10/19 05:22:07;;;;;;;2.78;1.88;;;26.60;99.90;;;;;;5055665;28;20017;-53
2023/10/19 05:24:33;;;;;;;4.00;2.25;;;26.50;99.90;;;;;;5055639;28;20029;-53
2023/10/19 05:26:59;;;;;;;3.45;1.80;;;26.50;99.90;;;;;;5055317;28;20025;-53
2023/10/19 05:29:25;;;;;;;4.63;2.03;;;26.50;99.90;;;;;;5055338;28;20075;-53
2023/10/19 05:31:57;;;;;;;6.68;2.10;;;26.50;99.90;;;;;;5055337;28;20025;-53
2023/10/19 05:34:26;;;;;;;4.75;2.45;;;26.50;99.90;;;;;;5055194;28;20025;-53
2023/10/19 05:36:54;;;;;;;6.30;2.63;;;26.50;99.90;;;;;;5055083;28;20100;-53
2023/10/19 05:39:20;;;;;;;5.35;2.65;;;26.40;99.90;;;;;;5055202;28;20024;-53
2023/10/19 05:41:46;;;;;;;4.68;2.17;;;26.40;99.90;;;;;;5055009;28;20025;-53
2023/10/19 05:44:12;;;;;;;5.05;2.42;;;26.40;99.90;;;;;;5055066;28;20032;-54
2023/10/19 05:46:40;;;;;;;4.70;2.22;;;26.40;99.90;;;;;;5054961;28;20111;-53
2023/10/19 05:49:06;;;;;;;6.30;2.42;;;26.40;99.90;;;;;;5055059;28;20430;-53
2023/10/19 05:51:32;;;;;;;4.90;2.00;;;26.40;99.90;;;;;;5054859;28;20100;-53
2023/10/19 05:54:04;;;;;;;5.20;2.67;;;26.40;99.90;;;;;;5036734;28;20358;-53
2023/10/19 05:56:36;;;;;;;4.93;2.40;;;26.40;99.90;;;;;;5054528;28;20022;-53
2023/10/19 05:59:02;;;;;;;7.40;2.97;;;26.40;99.90;;;;;;5054530;28;20100;-53
2023/10/19 06:01:28;;;;;;;4.20;2.38;;;26.40;99.90;;;;;;5054409;28;20047;-53
2023/10/19 06:03:54;;;;;;;5.15;1.90;;;26.40;99.90;;;;;;5054588;28;20025;-53
2023/10/19 06:06:20;;;;;;;5.63;2.28;;;26.40;99.90;;;;;;5054648;28;20017;-53
2023/10/19 06:08:46;;;;;;;5.57;2.03;;;26.30;99.90;;;;;;5054438;28;20033;-53
2023/10/19 06:11:13;;;;;;;6.45;2.20;;;26.30;99.90;;;;;;5054383;28;20044;-53
2023/10/19 06:13:39;;;;;;;6.93;2.22;;;26.30;99.90;;;;;;5054683;28;20056;-53
2023/10/19 06:16:05;;;;;;;4.85;1.90;;;26.30;99.90;;;;;;5054540;28;20418;-53
2023/10/19 06:18:31;;;;;;;3.28;2.10;;;26.30;99.90;;;;;;5053048;28;20040;-53
2023/10/19 06:20:57;;;;;;;3.88;1.85;;;26.30;99.90;;;;;;5053876;28;20040;-53
2023/10/19 06:23:23;;;;;;;5.13;2.40;;;26.30;99.90;;;;;;5053788;28;20021;-53
2023/10/19 06:25:51;;;;;;;4.90;1.90;;;26.30;99.90;;;;;;5053758;28;20056;-53
2023/10/19 06:28:17;;;;;;;4.53;2.00;;;26.30;99.90;;;;;;5053815;28;20061;-53
2023/10/19 06:30:42;;;;;;;3.30;1.83;;;26.30;99.90;;;;;;5053758;28;20049;-53
2023/10/19 06:33:08;;;;;;;4.95;2.60;;;26.30;99.90;;;;;;5054086;28;20029;-53
2023/10/19 06:35:37;;;;;;;4.60;1.92;;;26.30;99.90;;;;;;5054019;28;20078;-53
2023/10/19 06:38:03;;;;;;;4.55;2.10;;;26.30;99.90;;;;;;5053984;28;20126;-53
2023/10/19 06:40:30;;;;;;;4.88;1.80;;;26.30;99.90;;;;;;5053706;28;20060;-53
2023/10/19 06:42:58;;;;;;;4.00;1.90;;;26.30;99.90;;;;;;5053808;28;20478;-53
2023/10/19 06:45:25;;;;;;;3.53;1.60;;;26.30;99.90;;;;;;5053843;28;20064;-53
2023/10/19 06:47:51;;;;;;;5.93;2.58;;;26.30;99.90;;;;;;5053613;28;20042;-53
2023/10/19 06:50:22;;;;;;;4.70;2.47;;;26.30;99.90;;;;;;5053587;28;20095;-53
2023/10/19 06:52:48;;;;;;;5.30;2.03;;;26.30;99.90;;;;;;5053608;28;20025;-53
2023/10/19 06:55:25;;;;;;;3.50;2.00;;;26.30;99.90;;;;;;5035630;28;20049;-53
2023/10/19 06:57:53;;;;;;;4.35;1.90;;;26.30;99.90;;;;;;5053726;28;20025;-53
2023/10/19 07:00:26;;;;;;;6.40;2.05;;;26.30;99.90;;;;;;5053548;28;20108;-52
2023/10/19 07:02:54;;;;;;;3.83;1.80;;;26.30;99.90;;;;;;5053289;28;20049;-53
2023/10/19 07:05:25;;;;;;;5.60;1.95;;;26.30;99.90;;;;;;5053464;28;20032;-54
2023/10/19 07:07:53;;;;;;;3.38;1.98;;;26.30;99.90;;;;;;5053562;28;20040;-54
2023/10/19 07:10:20;;;;;;;5.05;1.70;;;26.30;99.90;;;;;;5053242;28;20059;-54
2023/10/19 07:12:48;;;;;;;5.35;1.92;;;26.30;99.90;;;;;;5053439;28;20021;-53
2023/10/19 07:15:14;;;;;;;4.47;1.98;;;26.30;99.90;;;;;;5053260;28;20366;-52
2023/10/19 07:17:41;;;;;;;2.22;1.60;;;26.30;99.90;;;;;;5053334;28;20032;-53
2023/10/19 07:20:09;;;;;;;5.07;1.60;;;26.30;99.90;;;;;;5053511;28;20024;-53
2023/10/19 07:22:38;;;;;;;3.60;1.63;;;26.30;99.90;;;;;;5053114;28;20479;-53
2023/10/19 07:25:06;;;;;;;3.95;1.95;;;26.30;99.90;;;;;;5052905;28;20017;-54
2023/10/19 07:27:33;;;;;;;6.60;2.08;;;26.30;99.90;;;;;;5052987;28;20021;-53
2023/10/19 07:29:59;;;;;;;;;;;26.30;99.90;;;;;;5053025;28;20150;-53
2023/10/19 07:32:25;;;;;;;4.10;2.00;;;26.30;99.90;;;;;;5052989;28;20395;-54
2023/10/19 07:34:51;;;;;;;5.10;1.98;;;26.40;99.90;;;;;;5052739;28;20041;-53
2023/10/19 07:37:16;;;;;;;5.10;1.83;;;26.40;99.90;;;;;;5052944;28;20469;-53
2023/10/19 07:39:46;;;;;;;3.67;1.52;;;26.40;99.90;;;;;;5053049;28;20374;-53
2023/10/19 07:42:12;;;;;;;3.72;1.70;;;26.40;99.90;;;;;;5052961;28;20017;-53
2023/10/19 07:44:38;;;;;;;3.75;1.98;;;26.40;99.90;;;;;;5052816;28;20032;-53
2023/10/19 07:47:04;;;;;;;4.55;1.75;;;26.40;99.90;;;;;;5052788;28;20032;-53
2023/10/19 07:49:30;;;;;;;4.70;1.90;;;26.40;99.90;;;;;;5052596;28;20118;-53
2023/10/19 07:51:57;;;;;;;3.65;1.63;;;26.40;99.90;;;;;;5052636;28;20021;-53
2023/10/19 07:54:23;;;;;;;6.03;1.80;;;26.40;99.90;;;;;;5052420;28;20108;-53
2023/10/19 07:56:50;;;;;;;5.68;2.10;;;26.40;99.90;;;;;;5052438;28;20064;-53
2023/10/19 07:59:16;;;;;;;4.93;2.10;;;26.40;99.90;;;;;;5052440;28;20017;-53
2023/10/19 08:01:42;;;;;;;4.82;1.75;;;26.40;99.90;;;;;;5052447;28;20072;-53
2023/10/19 08:04:07;;;;;;;5.00;1.73;;;26.30;99.90;;;;;;5052449;28;20048;-53
2023/10/19 08:06:33;;;;;;;7.35;2.67;;;26.40;99.90;;;;;;5052342;28;20021;-53
2023/10/19 08:08:59;;;;;;;5.05;1.80;;;26.40;99.90;;;;;;5052108;28;20033;-53
2023/10/19 08:11:25;;;;;;;3.88;1.85;;;26.30;99.90;;;;;;5052333;28;20101;-53
2023/10/19 08:13:51;;;;;;;5.70;2.00;;;26.40;99.90;;;;;;5052233;28;20485;-53
2023/10/19 08:16:17;;;;;;;3.55;1.50;;;26.40;99.90;;;;;;5052158;28;20017;-53
2023/10/19 08:18:43;;;;;;;4.47;1.95;;;26.30;99.90;;;;;;5052363;28;20096;-53
2023/10/19 08:21:09;;;;;;;6.03;2.25;;;26.40;99.90;;;;;;5051960;28;20025;-53
2023/10/19 08:23:35;;;;;;;7.50;2.13;;;26.30;99.90;;;;;;5052178;28;20131;-54
2023/10/19 08:26:05;;;;;;;5.15;1.98;;;26.40;99.90;;;;;;5052124;28;20092;-53
2023/10/19 08:28:32;;;;;;;4.22;2.05;;;26.40;99.90;;;;;;5052048;28;20033;-54
2023/10/19 08:31:01;;;;;;;4.73;2.13;;;26.40;99.90;;;;;;5052241;28;20488;-53
2023/10/19 08:33:29;;;;;;;7.40;2.67;;;26.40;99.90;;;;;;5052128;28;20031;-53
2023/10/19 08:35:56;;;;;;;7.32;2.47;;;26.40;99.90;;;;;;5052008;28;20478;-54
2023/10/19 08:38:23;;;;;;;3.78;1.73;;;26.40;99.90;;;;;;5052094;28;20111;-54
2023/10/19 08:40:50;;;;;;;5.20;2.13;;;26.30;99.90;;;;;;5051955;28;20029;-54
2023/10/19 08:43:18;;;;;;;;;;;26.40;99.90;;;;;;5055258;28;20029;-54
2023/10/19 08:45:44;;;;;;;5.97;2.22;;;26.40;99.90;;;;;;5056164;28;19915;-54
2023/10/19 08:48:11;;;;;;;5.50;2.22;;;26.40;99.90;;;;;;5055974;28;20029;-54
2023/10/19 08:50:37;;;;;;;5.15;2.30;;;26.30;99.90;;;;;;5056003;28;20210;-54
2023/10/19 08:53:08;;;;;;;7.47;2.40;;;26.30;99.90;;;;;;5056002;28;20021;-54
2023/10/19 08:55:36;;;;;;;4.82;2.15;;;26.30;99.90;;;;;;5038427;28;20048;-54
2023/10/19 08:58:05;;;;;;;5.40;2.25;;;26.30;99.90;;;;;;5055873;28;20031;-53
2023/10/19 09:00:46;;;;;;;10.35;2.25;;;26.30;99.90;;;;;;5055838;28;20032;-54
2023/10/19 09:03:13;;;;;;;5.30;2.38;;;26.30;99.90;;;;;;5014984;28;20145;-53
2023/10/19 09:05:40;;;;;;;8.35;2.95;;;26.30;99.90;;;;;;5016015;28;20036;-53
2023/10/19 09:08:07;;;;;;;4.82;2.70;;;26.30;99.90;;;;;;5016077;28;20042;-54
2023/10/19 09:10:36;;;;;;;6.35;2.40;;;26.30;99.90;;;;;;5014734;28;20102;-53
2023/10/19 09:13:02;;;;;;;3.85;1.80;;;26.30;99.90;;;;;;5016192;28;20033;-53
2023/10/19 09:15:32;;;;;;;4.00;2.00;;;26.30;99.90;;;;;;5015942;28;20014;-53
2023/10/19 09:17:59;;;;;;;6.68;2.33;;;26.30;99.90;;;;;;5015834;28;20025;-54
2023/10/19 09:20:27;;;;;;;4.45;2.17;;;26.30;99.90;;;;;;5015780;28;20044;-54
2023/10/19 09:23:02;;;;;;;6.75;2.17;;;26.30;99.90;;;;;;5015594;28;20037;-54
2023/10/19 09:25:27;;;;;;;7.88;2.40;;;26.30;99.90;;;;;;5015746;28;20064;-54
2023/10/19 09:27:53;;;;;;;5.63;2.33;;;26.30;99.90;;;;;;5014348;28;20026;-54
2023/10/19 09:30:21;;;;;;;6.18;2.60;;;26.30;99.90;;;;;;5015393;28;20028;-53
2023/10/19 09:32:48;;;;;;;5.25;2.35;;;26.30;99.90;;;;;;5015897;28;20014;-54
2023/10/19 09:35:15;;;;;;;5.97;1.98;;;26.30;99.90;;;;;;5015546;28;20026;-53
2023/10/19 09:37:44;;;;;;;7.47;2.47;;;26.30;99.90;;;;;;5014253;28;20048;-54
2023/10/19 09:40:14;;;;;;;4.80;2.13;;;26.30;99.90;;;;;;5015435;28;20100;-54
2023/10/19 09:42:48;;;;;;;6.38;2.83;;;26.30;99.90;;;;;;5015396;28;20037;-54
2023/10/19 09:45:19;;;;;;;8.10;2.67;;;26.30;99.90;;;;;;5015174;28;20025;-54
2023/10/19 09:47:51;;;;;;;8.23;3.20;;;26.40;99.90;;;;;;5015511;28;20026;-54
2023/10/19 09:50:17;;;;;;;4.20;2.05;;;26.40;99.90;;;;;;5015429;28;20026;-54
2023/10/19 09:52:43;;;;;;;6.70;2.70;;;26.40;99.90;;;;;;5014796;28;20032;-53
2023/10/19 09:55:29;;;;;;;8.98;2.92;;;26.40;99.90;;;;;;5015132;28;20034;-54
2023/10/19 09:58:17;;;;;;;6.97;2.10;;;26.40;99.90;;;;;;5013829;28;20116;-54
2023/10/19 10:00:49;;;;;;;8.38;3.20;;;26.40;99.90;;;;;;5016781;28;20045;-54
2023/10/19 10:03:43;;;;;;;5.90;2.70;;;26.40;99.90;;;;;;5054457;28;20110;-54
2023/10/19 10:06:14;;;;;;;4.18;2.38;;;26.50;99.90;;;;;;5054554;28;20048;-54
2023/10/19 10:08:42;;;;;;;7.60;2.60;;;26.50;99.90;;;;;;5054723;28;20492;-54
2023/10/19 10:11:27;;;;;;;4.82;2.50;;;26.50;99.90;;;;;;5054467;28;20532;-54
2023/10/19 10:13:56;;;;;;;6.55;2.78;;;26.50;99.90;;;;;;5036487;28;20473;-54
2023/10/19 10:16:26;;;;;;;6.57;2.88;;;26.50;99.90;;;;;;5054368;28;20091;-54
2023/10/19 10:19:01;;;;;;;7.35;2.40;;;26.50;99.90;;;;;;5054435;28;20430;-54
2023/10/19 10:21:30;;;;;;;5.25;2.67;;;26.50;99.90;;;;;;5036432;28;20025;-54
2023/10/19 10:24:03;;;;;;;7.00;3.00;;;26.50;99.90;;;;;;5054514;28;20382;-54
2023/10/19 10:26:58;;;;;;;6.40;2.45;;;26.60;99.90;;;;;;5054165;28;20478;-54
2023/10/19 10:29:24;;;;;;;5.38;3.05;;;26.60;99.90;;;;;;5053989;28;20060;-54
2023/10/19 10:31:50;;;;;;;4.90;2.88;;;26.60;99.90;;;;;;5054319;28;20514;-54
2023/10/19 10:34:38;;;;;;;8.07;3.17;;;26.70;99.90;;;;;;5054066;28;20051;-54
2023/10/19 10:37:07;;;;;;;5.47;2.88;;;26.70;99.90;;;;;;5053958;28;20108;-54
2023/10/19 10:39:36;;;;;;;6.85;3.42;;;26.80;99.90;;;;;;5036712;28;20021;-54
2023/10/19 10:42:06;;;;;;;7.32;3.22;;;26.80;99.90;;;;;;5053969;28;20100;-54
2023/10/19 10:44:41;;;;;;;5.50;3.65;;;26.80;99.90;;;;;;5053935;28;20088;-53
2023/10/19 10:47:16;;;;;;;5.78;2.90;;;26.80;99.90;;;;;;5053814;28;20428;-54
2023/10/19 10:49:53;;;;;;;5.80;2.53;;;26.90;99.90;;;;;;5036126;28;20039;-54
2023/10/19 10:52:35;;;;;;;5.20;2.90;;;26.90;99.90;;;;;;5054088;28;20481;-54
2023/10/19 10:55:11;;;;;;;5.10;2.90;;;26.90;99.90;;;;;;5053725;28;20033;-54
2023/10/19 10:57:37;;;;;;;16.70;3.40;;;26.90;99.90;;;;;;5053621;28;20056;-54
2023/10/19 11:00:06;;;;;;;6.93;3.40;;;26.90;99.90;;;;;;5035634;28;20025;-54
2023/10/19 11:02:32;;;;;;;6.18;3.33;;;26.90;99.90;;;;;;5053467;28;20056;-53
2023/10/19 11:05:00;;;;;;;5.03;2.95;;;26.90;99.90;;;;;;5052778;28;20377;-53
2023/10/19 11:07:25;;;;;;;8.27;3.00;;;26.90;99.90;;;;;;5053509;28;20079;-53
2023/10/19 11:09:51;;;;;;;9.38;3.75;;;26.80;99.90;;;;;;5053439;28;20033;-53
2023/10/19 11:12:17;;;;;;;13.63;3.67;;;26.80;99.90;;;;;;5035342;28;20373;-53
2023/10/19 11:14:53;;;;;;;8.57;3.85;;;26.80;99.90;;;;;;5053049;28;20145;-53
2023/10/19 11:17:22;;;;;;;9.23;3.60;;;26.80;99.90;;;;;;5053675;28;20381;-53
2023/10/19 11:19:49;;;;;;;7.80;3.63;;;26.80;99.90;;;;;;5053300;28;20508;-54
2023/10/19 11:22:15;;;;;;;7.13;3.50;;;26.80;99.90;;;;;;5053235;28;20025;-53
2023/10/19 11:24:40;;;;;;;5.35;3.50;;;26.80;99.90;;;;;;5053226;28;20040;-53
2023/10/19 11:27:11;;;;;;;8.32;3.63;;;26.80;99.90;;;;;;5053074;28;20024;-53
2023/10/19 11:29:38;;;;;;;9.10;4.68;;;26.80;99.90;;;;;;5052805;28;20094;-53
2023/10/19 11:32:05;;;;;;;7.43;3.25;;;26.80;99.90;;;;;;5053082;28;20017;-54
2023/10/19 11:34:34;;;;;;;9.75;4.20;;;26.80;99.90;;;;;;5053059;28;20385;-54
2023/10/19 11:37:00;;;;;;;8.20;3.60;;;26.80;99.90;;;;;;5052954;28;20017;-55
2023/10/19 11:39:26;;;;;;;7.22;3.40;;;26.80;99.90;;;;;;5035157;28;20393;-54
2023/10/19 11:41:53;;;;;;;3.90;3.03;;;26.80;99.90;;;;;;5053136;28;20478;-54
2023/10/19 11:44:19;;;;;;;9.23;3.90;;;26.80;99.90;;;;;;5052785;28;20079;-54
2023/10/19 11:46:45;;;;;;;5.95;3.33;;;26.80;99.90;;;;;;5052853;28;20393;-54
2023/10/19 11:49:11;;;;;;;8.27;4.00;;;26.80;99.90;;;;;;5052613;28;20037;-54
2023/10/19 11:51:39;;;;;;;7.10;3.40;;;26.80;99.90;;;;;;5052757;28;20424;-54
2023/10/19 11:54:06;;;;;;;10.32;3.15;;;26.80;99.90;;;;;;5052632;28;20382;-54
2023/10/19 11:56:32;;;;;;;7.25;4.07;;;26.80;99.90;;;;;;5052606;28;20035;-54
2023/10/19 11:58:58;;;;;;;7.03;3.10;;;26.80;99.90;;;;;;5052570;28;20017;-54
2023/10/19 12:01:25;;;;;;;5.68;3.50;;;26.90;99.90;;;;;;5052324;28;20075;-54
2023/10/19 12:03:51;;;;;;;6.55;3.00;;;26.90;99.90;;;;;;5052644;28;20392;-54
2023/10/19 12:06:23;;;;;;;8.90;3.95;;;26.90;99.90;;;;;;5052353;28;20103;-54
2023/10/19 12:08:49;;;;;;;7.00;3.83;;;26.90;99.90;;;;;;5052279;28;20037;-54
2023/10/19 12:11:16;;;;;;;5.75;2.92;;;26.90;99.90;;;;;;5034358;28;20139;-53
2023/10/19 12:13:45;;;;;;;5.60;2.97;;;26.90;99.90;;;;;;5052247;28;20025;-54
2023/10/19 12:16:15;;;;;;;8.70;4.43;;;26.90;99.90;;;;;;5052122;28;20036;-53
2023/10/19 12:18:45;;;;;;;7.78;3.35;;;26.90;99.90;;;;;;5052119;28;20100;-53
2023/10/19 12:21:14;;;;;;;8.15;3.75;;;26.90;99.90;;;;;;5052199;28;20481;-54
2023/10/19 12:23:41;;;;;;;8.32;3.67;;;26.90;99.90;;;;;;5052069;28;20040;-54
2023/10/19 12:26:11;;;;;;;10.55;3.25;;;26.90;99.90;;;;;;5052208;28;20028;-54
2023/10/19 12:28:40;;;;;;;5.75;3.25;;;26.90;99.90;;;;;;5052110;28;20043;-54
2023/10/19 12:31:10;;;;;;;9.73;3.75;;;26.80;99.90;;;;;;5052152;28;20473;-54
2023/10/19 12:33:38;;;;;;;8.48;3.67;;;26.90;99.90;;;;;;5052131;28;20025;-54
2023/10/19 12:38:50;;;;;;;8.25;3.85;;;26.80;99.90;;;;;;5051986;28;20082;-55
2023/10/19 12:41:17;;;;;;;10.93;4.30;;;26.80;99.90;;;;;;5051979;28;20102;-55
2023/10/19 12:43:43;;;;;;;8.60;3.38;;;26.80;99.90;;;;;;5034106;28;20037;-55
2023/10/19 12:46:09;;;;;;;9.80;4.25;;;26.80;99.90;;;;;;5052032;28;20020;-55
2023/10/19 12:48:35;;;;;;;9.00;3.50;;;26.80;99.90;;;;;;5034093;28;20370;-54
2023/10/19 12:51:02;;;;;;;13.50;3.78;;;26.80;99.90;;;;;;5051982;28;20026;-55
2023/10/19 12:53:28;;;;;;;6.70;3.65;;;26.70;99.90;;;;;;5034251;28;20025;-54
2023/10/19 12:55:53;;;;;;;10.18;3.80;;;26.70;99.90;;;;;;5052017;28;20027;-54
2023/10/19 12:58:20;;;;;;;7.13;3.45;;;26.70;99.90;;;;;;5051890;28;20473;-53
2023/10/19 13:00:49;;;;;;;8.90;3.92;;;26.70;99.90;;;;;;5051674;28;20350;-53
2023/10/19 13:03:18;;;;;;;11.10;4.15;;;26.70;99.90;;;;;;5033971;28;20025;-54
2023/10/19 13:05:44;;;;;;;11.32;4.18;;;26.70;99.90;;;;;;5051700;28;20470;-53
2023/10/19 13:08:14;;;;;;;8.55;3.60;;;26.70;99.90;;;;;;5051695;28;20045;-53
2023/10/19 13:10:44;;;;;;;6.30;3.58;;;26.70;99.90;;;;;;5034470;28;20100;-53
2023/10/19 13:13:14;;;;;;;11.13;4.53;;;26.60;99.90;;;;;;5051557;28;20051;-54
2023/10/19 13:15:44;;;;;;;6.53;3.67;;;26.60;99.90;;;;;;5051561;28;20025;-54